首页
METAR-TAF:

METAR-TAF

机场 :

Bobby L. Chain Municipal Airport

哈蒂斯堡, 密西西比州, 美国

纬度: 31-15-54N, 经度: 089-15-11W, 海拔: 46米

当前天气观测

该预报发布于17分钟前的11:53 UTC
风速8节,风向北转西北
温度 4°C
湿度 65%
气压 1027 hPa
能見度: 16.1公里
阴天层高于4100英尺

METAR: KHBG 271153Z AUTO 34008KT 10SM OVC041 04/M02 A3033 RMK AO2 SLP272 70002 T00441022 10050 20039 53007

时间: 06:10 (12:10 UTC)

预报

该预报发布于46分钟前的11:24 UTC
预报有效从27日的 12点(UTC)到 28日的 12点(UTC)
风速7节,风向西转西北
能見度: 10公里
多云层高于4000英尺
从 27日的 1400点(UTC)
风速7节,风向西北
能見度: 10公里
散云层高于25000英尺

TAF: KHBG 271124Z 2712/2812 30007KT P6SM BKN040 FM271400 32007KT P6SM SCT250

超过4000个机场的气象观测和天气预报(METAR&TAF报告)。

可查询的气象台以黄色和红色小点在地图上表示。

将鼠标移到小点上方,可查看气象台名称。

然后点击查看天气观测和预报。

如需切换地图:点击带黑十字的绿色按钮放大地图;点击带横线的绿色按钮缩小地图;或者点击绿色箭头查看邻近地区的地图。


METAR-TAF: